sensor_id;sensor_type;location;lat;lon;timestamp;temperature;humidity
5118;DHT22;2578;51.622;7.046;2022-07-29T00:02:14;18.50;57.60
5118;DHT22;2578;51.622;7.046;2022-07-29T00:04:39;18.50;58.70
5118;DHT22;2578;51.622;7.046;2022-07-29T00:07:05;18.50;61.00
5118;DHT22;2578;51.622;7.046;2022-07-29T00:09:31;18.40;61.00
5118;DHT22;2578;51.622;7.046;2022-07-29T00:11:59;18.40;62.70
5118;DHT22;2578;51.622;7.046;2022-07-29T00:14:26;18.30;64.80
5118;DHT22;2578;51.622;7.046;2022-07-29T00:16:52;18.40;70.10
5118;DHT22;2578;51.622;7.046;2022-07-29T00:19:17;18.30;70.40
5118;DHT22;2578;51.622;7.046;2022-07-29T00:21:43;18.30;72.10
5118;DHT22;2578;51.622;7.046;2022-07-29T00:24:09;18.20;75.30
5118;DHT22;2578;51.622;7.046;2022-07-29T00:26:34;18.20;76.40
5118;DHT22;2578;51.622;7.046;2022-07-29T00:29:01;18.10;82.80
5118;DHT22;2578;51.622;7.046;2022-07-29T00:31:27;18.10;82.30
5118;DHT22;2578;51.622;7.046;2022-07-29T00:33:53;18.00;84.50
5118;DHT22;2578;51.622;7.046;2022-07-29T00:36:19;18.00;85.20
5118;DHT22;2578;51.622;7.046;2022-07-29T00:38:47;18.00;84.30
5118;DHT22;2578;51.622;7.046;2022-07-29T00:41:12;17.90;90.00
5118;DHT22;2578;51.622;7.046;2022-07-29T00:43:38;17.90;86.50
5118;DHT22;2578;51.622;7.046;2022-07-29T00:46:04;17.90;86.70
5118;DHT22;2578;51.622;7.046;2022-07-29T00:48:30;18.00;88.00
5118;DHT22;2578;51.622;7.046;2022-07-29T00:50:57;18.00;89.00
5118;DHT22;2578;51.622;7.046;2022-07-29T00:53:25;17.90;90.40
5118;DHT22;2578;51.622;7.046;2022-07-29T00:55:51;17.90;92.50
5118;DHT22;2578;51.622;7.046;2022-07-29T00:58:18;17.90;93.40
5118;DHT22;2578;51.622;7.046;2022-07-29T01:00:44;17.70;93.10
5118;DHT22;2578;51.622;7.046;2022-07-29T01:03:10;17.80;92.60
5118;DHT22;2578;51.622;7.046;2022-07-29T01:05:35;17.80;91.80
5118;DHT22;2578;51.622;7.046;2022-07-29T01:08:02;17.70;92.50
5118;DHT22;2578;51.622;7.046;2022-07-29T01:10:28;17.80;92.90
5118;DHT22;2578;51.622;7.046;2022-07-29T01:12:57;17.70;92.70
5118;DHT22;2578;51.622;7.046;2022-07-29T01:15:24;17.60;94.10
5118;DHT22;2578;51.622;7.046;2022-07-29T01:18:04;17.60;94.90
5118;DHT22;2578;51.622;7.046;2022-07-29T01:21:20;17.50;97.60
5118;DHT22;2578;51.622;7.046;2022-07-29T01:29:57;17.10;99.90
5118;DHT22;2578;51.622;7.046;2022-07-29T01:32:29;17.00;99.90
5118;DHT22;2578;51.622;7.046;2022-07-29T01:38:30;17.00;99.90
5118;DHT22;2578;51.622;7.046;2022-07-29T01:41:03;16.90;99.90
5118;DHT22;2578;51.622;7.046;2022-07-29T01:43:43;16.90;99.90
5118;DHT22;2578;51.622;7.046;2022-07-29T01:46:14;16.90;99.90
5118;DHT22;2578;51.622;7.046;2022-07-29T01:48:47;16.90;99.90
5118;DHT22;2578;51.622;7.046;2022-07-29T01:51:21;16.90;99.90
5118;DHT22;2578;51.622;7.046;2022-07-29T01:53:56;16.90;99.90
5118;DHT22;2578;51.622;7.046;2022-07-29T01:56:24;16.90;99.90
5118;DHT22;2578;51.622;7.046;2022-07-29T01:58:55;16.90;99.90
5118;DHT22;2578;51.622;7.046;2022-07-29T02:01:24;16.90;99.90
5118;DHT22;2578;51.622;7.046;2022-07-29T02:03:51;16.90;99.90
5118;DHT22;2578;51.622;7.046;2022-07-29T02:06:20;16.80;99.90
5118;DHT22;2578;51.622;7.046;2022-07-29T02:08:47;16.80;99.90
5118;DHT22;2578;51.622;7.046;2022-07-29T02:11:14;16.80;99.90
5118;DHT22;2578;51.622;7.046;2022-07-29T02:13:41;16.70;99.90
5118;DHT22;2578;51.622;7.046;2022-07-29T02:16:08;16.70;99.90
5118;DHT22;2578;51.622;7.046;2022-07-29T02:18:37;16.60;99.90
5118;DHT22;2578;51.622;7.046;2022-07-29T02:21:04;16.70;99.90
5118;DHT22;2578;51.622;7.046;2022-07-29T02:23:31;16.60;99.90
5118;DHT22;2578;51.622;7.046;2022-07-29T02:25:57;16.60;99.90
5118;DHT22;2578;51.622;7.046;2022-07-29T02:28:25;16.60;99.90
5118;DHT22;2578;51.622;7.046;2022-07-29T02:30:53;16.60;99.90
5118;DHT22;2578;51.622;7.046;2022-07-29T02:33:20;16.60;99.90
5118;DHT22;2578;51.622;7.046;2022-07-29T02:35:47;16.70;99.90
5118;DHT22;2578;51.622;7.046;2022-07-29T02:38:15;16.60;99.90
5118;DHT22;2578;51.622;7.046;2022-07-29T02:41:30;16.50;99.90
5118;DHT22;2578;51.622;7.046;2022-07-29T02:44:06;16.30;99.90
5118;DHT22;2578;51.622;7.046;2022-07-29T02:46:36;16.30;99.90
5118;DHT22;2578;51.622;7.046;2022-07-29T02:49:10;16.20;99.90
5118;DHT22;2578;51.622;7.046;2022-07-29T02:51:43;16.20;99.90
5118;DHT22;2578;51.622;7.046;2022-07-29T02:54:14;16.00;99.90
5118;DHT22;2578;51.622;7.046;2022-07-29T02:56:43;16.00;99.90
5118;DHT22;2578;51.622;7.046;2022-07-29T02:59:11;15.90;99.90
5118;DHT22;2578;51.622;7.046;2022-07-29T03:01:41;15.70;99.90
5118;DHT22;2578;51.622;7.046;2022-07-29T03:04:09;15.50;99.90
5118;DHT22;2578;51.622;7.046;2022-07-29T03:06:37;15.40;99.90
5118;DHT22;2578;51.622;7.046;2022-07-29T03:09:06;15.30;99.90
5118;DHT22;2578;51.622;7.046;2022-07-29T03:11:33;15.30;99.90
5118;DHT22;2578;51.622;7.046;2022-07-29T03:13:59;15.20;99.90
5118;DHT22;2578;51.622;7.046;2022-07-29T03:16:25;15.10;99.90
5118;DHT22;2578;51.622;7.046;2022-07-29T03:18:51;15.10;99.90
5118;DHT22;2578;51.622;7.046;2022-07-29T03:21:17;15.10;99.90
5118;DHT22;2578;51.622;7.046;2022-07-29T03:23:44;15.10;99.90
5118;DHT22;2578;51.622;7.046;2022-07-29T03:26:13;15.00;99.90
5118;DHT22;2578;51.622;7.046;2022-07-29T03:28:39;15.00;99.90
5118;DHT22;2578;51.622;7.046;2022-07-29T03:31:04;15.00;99.90
5118;DHT22;2578;51.622;7.046;2022-07-29T03:33:30;15.20;99.90
5118;DHT22;2578;51.622;7.046;2022-07-29T03:35:56;15.30;99.90
5118;DHT22;2578;51.622;7.046;2022-07-29T03:38:24;15.50;99.90
5118;DHT22;2578;51.622;7.046;2022-07-29T03:41:01;15.50;99.90
5118;DHT22;2578;51.622;7.046;2022-07-29T03:43:31;15.50;99.90
5118;DHT22;2578;51.622;7.046;2022-07-29T03:45:59;15.60;99.90
5118;DHT22;2578;51.622;7.046;2022-07-29T03:48:26;15.60;99.90
5118;DHT22;2578;51.622;7.046;2022-07-29T03:50:55;15.70;99.90
5118;DHT22;2578;51.622;7.046;2022-07-29T03:53:21;15.80;99.90
5118;DHT22;2578;51.622;7.046;2022-07-29T03:55:52;15.80;99.90
5118;DHT22;2578;51.622;7.046;2022-07-29T03:58:19;15.80;99.90
5118;DHT22;2578;51.622;7.046;2022-07-29T04:00:46;15.80;99.90
5118;DHT22;2578;51.622;7.046;2022-07-29T04:03:12;15.90;99.90
5118;DHT22;2578;51.622;7.046;2022-07-29T04:05:38;15.90;99.90
5118;DHT22;2578;51.622;7.046;2022-07-29T04:08:04;16.00;99.90
5118;DHT22;2578;51.622;7.046;2022-07-29T04:10:30;16.00;99.90
5118;DHT22;2578;51.622;7.046;2022-07-29T04:12:56;16.00;99.90
5118;DHT22;2578;51.622;7.046;2022-07-29T04:15:21;16.10;99.90
5118;DHT22;2578;51.622;7.046;2022-07-29T04:17:47;16.10;99.90
5118;DHT22;2578;51.622;7.046;2022-07-29T04:20:13;16.10;99.90
5118;DHT22;2578;51.622;7.046;2022-07-29T04:22:39;16.10;99.90
5118;DHT22;2578;51.622;7.046;2022-07-29T04:25:05;16.10;99.90
5118;DHT22;2578;51.622;7.046;2022-07-29T04:27:31;16.10;99.90
5118;DHT22;2578;51.622;7.046;2022-07-29T04:29:57;16.00;99.90
5118;DHT22;2578;51.622;7.046;2022-07-29T04:32:23;16.00;99.90
5118;DHT22;2578;51.622;7.046;2022-07-29T04:34:49;16.00;99.90
5118;DHT22;2578;51.622;7.046;2022-07-29T04:37:15;16.00;99.90
5118;DHT22;2578;51.622;7.046;2022-07-29T04:39:40;16.00;99.90
5118;DHT22;2578;51.622;7.046;2022-07-29T04:42:06;16.00;99.90
5118;DHT22;2578;51.622;7.046;2022-07-29T04:44:32;15.90;99.90
5118;DHT22;2578;51.622;7.046;2022-07-29T04:46:57;16.00;99.90
5118;DHT22;2578;51.622;7.046;2022-07-29T04:49:23;15.90;99.90
5118;DHT22;2578;51.622;7.046;2022-07-29T04:51:48;15.90;99.90
5118;DHT22;2578;51.622;7.046;2022-07-29T04:54:14;15.90;99.90
5118;DHT22;2578;51.622;7.046;2022-07-29T04:56:40;16.00;99.90
5118;DHT22;2578;51.622;7.046;2022-07-29T04:59:07;15.90;99.90
5118;DHT22;2578;51.622;7.046;2022-07-29T05:01:32;16.00;99.90
5118;DHT22;2578;51.622;7.046;2022-07-29T05:03:58;16.00;99.90
5118;DHT22;2578;51.622;7.046;2022-07-29T05:06:24;16.00;99.90
5118;DHT22;2578;51.622;7.046;2022-07-29T05:08:49;16.00;99.90
5118;DHT22;2578;51.622;7.046;2022-07-29T05:11:15;16.00;99.90
5118;DHT22;2578;51.622;7.046;2022-07-29T05:13:40;16.00;99.90
5118;DHT22;2578;51.622;7.046;2022-07-29T05:16:08;16.00;99.90
5118;DHT22;2578;51.622;7.046;2022-07-29T05:18:34;16.00;99.90
5118;DHT22;2578;51.622;7.046;2022-07-29T05:21:00;15.90;99.90
5118;DHT22;2578;51.622;7.046;2022-07-29T05:23:25;15.80;99.90
5118;DHT22;2578;51.622;7.046;2022-07-29T05:25:51;15.70;99.90
5118;DHT22;2578;51.622;7.046;2022-07-29T05:28:17;15.70;99.90
5118;DHT22;2578;51.622;7.046;2022-07-29T05:30:42;15.70;99.90
5118;DHT22;2578;51.622;7.046;2022-07-29T05:33:09;15.80;99.90
5118;DHT22;2578;51.622;7.046;2022-07-29T05:35:35;15.80;99.90
5118;DHT22;2578;51.622;7.046;2022-07-29T05:38:02;15.80;99.90
5118;DHT22;2578;51.622;7.046;2022-07-29T05:40:31;15.80;99.90
5118;DHT22;2578;51.622;7.046;2022-07-29T05:42:57;15.90;99.90
5118;DHT22;2578;51.622;7.046;2022-07-29T05:45:23;16.00;99.90
5118;DHT22;2578;51.622;7.046;2022-07-29T05:47:49;16.00;99.90
5118;DHT22;2578;51.622;7.046;2022-07-29T05:50:15;16.00;99.90
5118;DHT22;2578;51.622;7.046;2022-07-29T05:52:41;16.00;99.90
5118;DHT22;2578;51.622;7.046;2022-07-29T05:55:07;16.00;99.90
5118;DHT22;2578;51.622;7.046;2022-07-29T05:57:33;16.10;99.90
5118;DHT22;2578;51.622;7.046;2022-07-29T05:59:58;16.10;99.90
5118;DHT22;2578;51.622;7.046;2022-07-29T06:02:24;16.10;99.90
5118;DHT22;2578;51.622;7.046;2022-07-29T06:04:50;16.10;99.90
5118;DHT22;2578;51.622;7.046;2022-07-29T06:07:16;16.10;99.90
5118;DHT22;2578;51.622;7.046;2022-07-29T06:09:42;16.10;99.90
5118;DHT22;2578;51.622;7.046;2022-07-29T06:12:08;16.10;99.90
5118;DHT22;2578;51.622;7.046;2022-07-29T06:14:34;16.10;99.90
5118;DHT22;2578;51.622;7.046;2022-07-29T06:17:01;16.00;99.90
5118;DHT22;2578;51.622;7.046;2022-07-29T06:19:26;16.00;99.90
5118;DHT22;2578;51.622;7.046;2022-07-29T06:21:52;16.00;99.90
5118;DHT22;2578;51.622;7.046;2022-07-29T06:24:18;16.10;99.90
5118;DHT22;2578;51.622;7.046;2022-07-29T06:26:44;16.10;99.90
5118;DHT22;2578;51.622;7.046;2022-07-29T06:29:11;16.10;99.90
5118;DHT22;2578;51.622;7.046;2022-07-29T06:31:37;16.10;99.90
5118;DHT22;2578;51.622;7.046;2022-07-29T06:34:03;16.20;99.90
5118;DHT22;2578;51.622;7.046;2022-07-29T06:36:30;16.20;99.90
5118;DHT22;2578;51.622;7.046;2022-07-29T06:38:55;16.20;99.90
5118;DHT22;2578;51.622;7.046;2022-07-29T06:41:21;16.20;99.90
5118;DHT22;2578;51.622;7.046;2022-07-29T06:43:48;16.30;99.90
5118;DHT22;2578;51.622;7.046;2022-07-29T06:46:16;16.30;99.90
5118;DHT22;2578;51.622;7.046;2022-07-29T06:48:46;16.30;99.90
5118;DHT22;2578;51.622;7.046;2022-07-29T06:51:12;16.40;99.90
5118;DHT22;2578;51.622;7.046;2022-07-29T06:53:39;16.40;99.90
5118;DHT22;2578;51.622;7.046;2022-07-29T06:56:06;16.30;99.90
5118;DHT22;2578;51.622;7.046;2022-07-29T06:58:34;16.30;99.90
5118;DHT22;2578;51.622;7.046;2022-07-29T07:01:02;16.30;99.90
5118;DHT22;2578;51.622;7.046;2022-07-29T07:03:29;16.40;99.90
5118;DHT22;2578;51.622;7.046;2022-07-29T07:05:55;16.50;99.90
5118;DHT22;2578;51.622;7.046;2022-07-29T07:08:21;16.60;99.90
5118;DHT22;2578;51.622;7.046;2022-07-29T07:10:48;16.70;99.90
5118;DHT22;2578;51.622;7.046;2022-07-29T07:13:14;16.80;99.90
5118;DHT22;2578;51.622;7.046;2022-07-29T07:15:40;16.80;99.90
5118;DHT22;2578;51.622;7.046;2022-07-29T07:18:06;16.90;99.90
5118;DHT22;2578;51.622;7.046;2022-07-29T07:20:36;17.00;99.90
5118;DHT22;2578;51.622;7.046;2022-07-29T07:23:02;17.00;99.90
5118;DHT22;2578;51.622;7.046;2022-07-29T07:25:28;17.00;99.90
5118;DHT22;2578;51.622;7.046;2022-07-29T07:27:54;17.00;99.90
5118;DHT22;2578;51.622;7.046;2022-07-29T07:30:19;17.10;99.90
5118;DHT22;2578;51.622;7.046;2022-07-29T07:32:45;17.20;99.90
5118;DHT22;2578;51.622;7.046;2022-07-29T07:35:11;17.30;99.90
5118;DHT22;2578;51.622;7.046;2022-07-29T07:37:38;17.40;99.90
5118;DHT22;2578;51.622;7.046;2022-07-29T07:40:06;17.40;99.90
5118;DHT22;2578;51.622;7.046;2022-07-29T07:42:32;17.60;99.90
5118;DHT22;2578;51.622;7.046;2022-07-29T07:44:58;17.70;99.90
5118;DHT22;2578;51.622;7.046;2022-07-29T07:47:24;17.80;99.90
5118;DHT22;2578;51.622;7.046;2022-07-29T07:49:50;17.90;99.90
5118;DHT22;2578;51.622;7.046;2022-07-29T07:52:17;18.10;99.90
5118;DHT22;2578;51.622;7.046;2022-07-29T07:54:44;18.40;99.90
5118;DHT22;2578;51.622;7.046;2022-07-29T07:57:11;18.50;99.90
5118;DHT22;2578;51.622;7.046;2022-07-29T07:59:37;18.60;99.90
5118;DHT22;2578;51.622;7.046;2022-07-29T08:02:03;18.60;99.90
5118;DHT22;2578;51.622;7.046;2022-07-29T08:04:29;18.70;99.90
5118;DHT22;2578;51.622;7.046;2022-07-29T08:06:55;18.70;99.90
5118;DHT22;2578;51.622;7.046;2022-07-29T08:09:22;18.90;99.90
5118;DHT22;2578;51.622;7.046;2022-07-29T08:11:47;19.10;99.90
5118;DHT22;2578;51.622;7.046;2022-07-29T08:14:13;19.50;99.90
5118;DHT22;2578;51.622;7.046;2022-07-29T08:16:40;19.50;99.90
5118;DHT22;2578;51.622;7.046;2022-07-29T08:19:06;19.80;99.90
5118;DHT22;2578;51.622;7.046;2022-07-29T08:21:32;19.90;99.90
5118;DHT22;2578;51.622;7.046;2022-07-29T08:23:57;19.90;99.90
5118;DHT22;2578;51.622;7.046;2022-07-29T08:26:42;19.90;99.90
5118;DHT22;2578;51.622;7.046;2022-07-29T08:29:08;19.90;99.90
5118;DHT22;2578;51.622;7.046;2022-07-29T08:31:35;19.90;99.90
5118;DHT22;2578;51.622;7.046;2022-07-29T08:34:01;20.00;99.90
5118;DHT22;2578;51.622;7.046;2022-07-29T08:36:28;20.00;99.90
5118;DHT22;2578;51.622;7.046;2022-07-29T08:38:53;19.90;99.90
5118;DHT22;2578;51.622;7.046;2022-07-29T08:41:19;19.70;99.90
5118;DHT22;2578;51.622;7.046;2022-07-29T08:43:46;19.60;99.90
5118;DHT22;2578;51.622;7.046;2022-07-29T08:46:12;19.50;99.90
5118;DHT22;2578;51.622;7.046;2022-07-29T08:48:38;19.40;99.90
5118;DHT22;2578;51.622;7.046;2022-07-29T08:51:07;19.20;99.90
5118;DHT22;2578;51.622;7.046;2022-07-29T08:53:33;19.10;99.90
5118;DHT22;2578;51.622;7.046;2022-07-29T08:56:01;18.90;99.90
5118;DHT22;2578;51.622;7.046;2022-07-29T08:58:31;18.90;99.90
5118;DHT22;2578;51.622;7.046;2022-07-29T09:01:01;18.90;99.90
5118;DHT22;2578;51.622;7.046;2022-07-29T09:03:30;18.70;99.90
5118;DHT22;2578;51.622;7.046;2022-07-29T09:05:59;18.60;99.90
5118;DHT22;2578;51.622;7.046;2022-07-29T09:08:25;18.50;99.90
5118;DHT22;2578;51.622;7.046;2022-07-29T09:10:51;18.50;99.90
5118;DHT22;2578;51.622;7.046;2022-07-29T09:13:17;18.40;99.90
5118;DHT22;2578;51.622;7.046;2022-07-29T09:15:44;18.40;99.90
5118;DHT22;2578;51.622;7.046;2022-07-29T09:18:09;18.40;99.90
5118;DHT22;2578;51.622;7.046;2022-07-29T09:20:35;18.30;99.90
5118;DHT22;2578;51.622;7.046;2022-07-29T09:23:19;18.20;99.90
5118;DHT22;2578;51.622;7.046;2022-07-29T09:25:45;18.00;99.90
5118;DHT22;2578;51.622;7.046;2022-07-29T09:28:14;18.00;99.90
5118;DHT22;2578;51.622;7.046;2022-07-29T09:30:52;17.90;99.90
5118;DHT22;2578;51.622;7.046;2022-07-29T09:33:18;17.90;99.90
5118;DHT22;2578;51.622;7.046;2022-07-29T09:35:44;18.00;99.90
5118;DHT22;2578;51.622;7.046;2022-07-29T09:38:11;18.00;99.90
5118;DHT22;2578;51.622;7.046;2022-07-29T09:40:37;18.00;99.90
5118;DHT22;2578;51.622;7.046;2022-07-29T09:43:10;18.10;99.90
5118;DHT22;2578;51.622;7.046;2022-07-29T09:45:37;18.20;99.90
5118;DHT22;2578;51.622;7.046;2022-07-29T09:48:18;18.20;99.90
5118;DHT22;2578;51.622;7.046;2022-07-29T09:50:45;18.30;99.90
5118;DHT22;2578;51.622;7.046;2022-07-29T09:56:05;18.50;99.90
5118;DHT22;2578;51.622;7.046;2022-07-29T09:59:08;18.50;99.90
5118;DHT22;2578;51.622;7.046;2022-07-29T10:01:37;18.40;99.90
5118;DHT22;2578;51.622;7.046;2022-07-29T10:04:03;18.30;99.90
5118;DHT22;2578;51.622;7.046;2022-07-29T10:06:29;18.30;99.90
5118;DHT22;2578;51.622;7.046;2022-07-29T10:09:01;18.30;99.90
5118;DHT22;2578;51.622;7.046;2022-07-29T10:11:32;18.30;99.90
5118;DHT22;2578;51.622;7.046;2022-07-29T10:13:58;18.30;99.90
5118;DHT22;2578;51.622;7.046;2022-07-29T10:16:24;18.30;99.90
5118;DHT22;2578;51.622;7.046;2022-07-29T10:18:51;18.20;99.90
5118;DHT22;2578;51.622;7.046;2022-07-29T10:21:21;18.10;99.90
5118;DHT22;2578;51.622;7.046;2022-07-29T10:23:49;18.20;99.90
5118;DHT22;2578;51.622;7.046;2022-07-29T10:26:15;18.20;99.90
5118;DHT22;2578;51.622;7.046;2022-07-29T10:28:42;18.30;99.90
5118;DHT22;2578;51.622;7.046;2022-07-29T10:31:34;18.50;99.90
5118;DHT22;2578;51.622;7.046;2022-07-29T10:34:55;18.50;99.90
5118;DHT22;2578;51.622;7.046;2022-07-29T10:40:52;18.40;99.90
5118;DHT22;2578;51.622;7.046;2022-07-29T10:43:43;18.40;99.90
5118;DHT22;2578;51.622;7.046;2022-07-29T10:46:10;18.40;99.90
5118;DHT22;2578;51.622;7.046;2022-07-29T10:49:09;18.50;99.90
5118;DHT22;2578;51.622;7.046;2022-07-29T10:59:52;19.10;99.90
5118;DHT22;2578;51.622;7.046;2022-07-29T11:07:32;19.40;99.90
5118;DHT22;2578;51.622;7.046;2022-07-29T11:15:10;19.80;99.90
5118;DHT22;2578;51.622;7.046;2022-07-29T11:22:59;20.00;99.90
5118;DHT22;2578;51.622;7.046;2022-07-29T11:25:26;20.10;99.90
5118;DHT22;2578;51.622;7.046;2022-07-29T11:27:54;20.20;99.90
5118;DHT22;2578;51.622;7.046;2022-07-29T11:30:51;20.30;99.90
5118;DHT22;2578;51.622;7.046;2022-07-29T11:33:33;20.60;99.90
5118;DHT22;2578;51.622;7.046;2022-07-29T11:38:36;21.60;99.90
5118;DHT22;2578;51.622;7.046;2022-07-29T11:41:26;22.30;99.90
5118;DHT22;2578;51.622;7.046;2022-07-29T11:43:56;23.80;99.90
5118;DHT22;2578;51.622;7.046;2022-07-29T11:49:12;24.30;99.90
5118;DHT22;2578;51.622;7.046;2022-07-29T11:51:39;25.00;98.50
5118;DHT22;2578;51.622;7.046;2022-07-29T11:54:09;25.80;94.10
5118;DHT22;2578;51.622;7.046;2022-07-29T11:56:39;25.80;95.10
5118;DHT22;2578;51.622;7.046;2022-07-29T11:59:10;25.80;90.00
5118;DHT22;2578;51.622;7.046;2022-07-29T12:01:51;25.70;86.00
5118;DHT22;2578;51.622;7.046;2022-07-29T12:04:17;26.30;84.40
5118;DHT22;2578;51.622;7.046;2022-07-29T12:06:43;27.10;75.20
5118;DHT22;2578;51.622;7.046;2022-07-29T12:09:14;27.70;63.70
5118;DHT22;2578;51.622;7.046;2022-07-29T12:11:42;28.00;54.10
5118;DHT22;2578;51.622;7.046;2022-07-29T12:14:08;27.10;60.10
5118;DHT22;2578;51.622;7.046;2022-07-29T12:16:35;27.10;61.40
5118;DHT22;2578;51.622;7.046;2022-07-29T12:19:04;27.00;53.00
5118;DHT22;2578;51.622;7.046;2022-07-29T12:21:51;26.60;60.00
5118;DHT22;2578;51.622;7.046;2022-07-29T12:24:19;26.00;47.20
5118;DHT22;2578;51.622;7.046;2022-07-29T12:26:57;26.10;48.90
5118;DHT22;2578;51.622;7.046;2022-07-29T12:29:25;26.30;54.70
5118;DHT22;2578;51.622;7.046;2022-07-29T12:31:56;26.30;46.70
5118;DHT22;2578;51.622;7.046;2022-07-29T12:34:24;27.20;52.80
5118;DHT22;2578;51.622;7.046;2022-07-29T12:36:53;27.20;50.10
5118;DHT22;2578;51.622;7.046;2022-07-29T12:39:19;27.00;46.40
5118;DHT22;2578;51.622;7.046;2022-07-29T12:41:46;27.00;50.50
5118;DHT22;2578;51.622;7.046;2022-07-29T12:44:12;26.70;49.20
5118;DHT22;2578;51.622;7.046;2022-07-29T12:46:38;26.40;49.20
5118;DHT22;2578;51.622;7.046;2022-07-29T12:49:04;26.50;49.50
5118;DHT22;2578;51.622;7.046;2022-07-29T12:51:39;26.40;52.70
5118;DHT22;2578;51.622;7.046;2022-07-29T12:54:11;25.70;52.40
5118;DHT22;2578;51.622;7.046;2022-07-29T12:56:39;25.50;49.80
5118;DHT22;2578;51.622;7.046;2022-07-29T12:59:20;25.20;48.60
5118;DHT22;2578;51.622;7.046;2022-07-29T13:01:47;24.90;53.20
5118;DHT22;2578;51.622;7.046;2022-07-29T13:04:27;24.80;56.60
5118;DHT22;2578;51.622;7.046;2022-07-29T13:07:01;24.80;59.40
5118;DHT22;2578;51.622;7.046;2022-07-29T13:09:37;24.70;52.10
5118;DHT22;2578;51.622;7.046;2022-07-29T13:12:08;24.70;56.00
5118;DHT22;2578;51.622;7.046;2022-07-29T13:17:11;24.40;70.00
5118;DHT22;2578;51.622;7.046;2022-07-29T13:19:43;24.20;81.10
5118;DHT22;2578;51.622;7.046;2022-07-29T13:22:10;24.00;83.20
5118;DHT22;2578;51.622;7.046;2022-07-29T13:24:59;23.90;85.00
5118;DHT22;2578;51.622;7.046;2022-07-29T13:27:30;23.90;86.80
5118;DHT22;2578;51.622;7.046;2022-07-29T13:29:58;23.80;90.20
5118;DHT22;2578;51.622;7.046;2022-07-29T13:32:26;23.60;91.90
5118;DHT22;2578;51.622;7.046;2022-07-29T13:34:53;23.60;91.90
5118;DHT22;2578;51.622;7.046;2022-07-29T13:37:19;23.60;92.80
5118;DHT22;2578;51.622;7.046;2022-07-29T13:39:45;23.50;93.80
5118;DHT22;2578;51.622;7.046;2022-07-29T13:42:11;23.20;94.80
5118;DHT22;2578;51.622;7.046;2022-07-29T13:44:39;23.20;96.90
5118;DHT22;2578;51.622;7.046;2022-07-29T13:47:05;23.20;97.00
5118;DHT22;2578;51.622;7.046;2022-07-29T13:49:32;23.40;99.10
5118;DHT22;2578;51.622;7.046;2022-07-29T13:51:57;23.60;97.40
5118;DHT22;2578;51.622;7.046;2022-07-29T13:54:23;23.60;98.70
5118;DHT22;2578;51.622;7.046;2022-07-29T13:56:50;23.60;98.80
5118;DHT22;2578;51.622;7.046;2022-07-29T13:59:16;23.60;99.90
5118;DHT22;2578;51.622;7.046;2022-07-29T14:01:42;23.60;99.40
5118;DHT22;2578;51.622;7.046;2022-07-29T14:04:09;23.70;97.80
5118;DHT22;2578;51.622;7.046;2022-07-29T14:06:36;23.60;98.20
5118;DHT22;2578;51.622;7.046;2022-07-29T14:09:03;23.80;96.20
5118;DHT22;2578;51.622;7.046;2022-07-29T14:11:34;23.90;98.90
5118;DHT22;2578;51.622;7.046;2022-07-29T14:14:01;25.10;97.00
5118;DHT22;2578;51.622;7.046;2022-07-29T14:16:26;25.10;96.90
5118;DHT22;2578;51.622;7.046;2022-07-29T14:18:52;25.40;94.10
5118;DHT22;2578;51.622;7.046;2022-07-29T14:21:18;25.50;93.50
5118;DHT22;2578;51.622;7.046;2022-07-29T14:23:43;25.50;93.20
5118;DHT22;2578;51.622;7.046;2022-07-29T14:26:09;25.90;90.80
5118;DHT22;2578;51.622;7.046;2022-07-29T14:28:35;26.00;85.80
5118;DHT22;2578;51.622;7.046;2022-07-29T14:31:00;26.00;85.20
5118;DHT22;2578;51.622;7.046;2022-07-29T14:33:26;26.00;86.50
5118;DHT22;2578;51.622;7.046;2022-07-29T14:35:52;26.10;79.00
5118;DHT22;2578;51.622;7.046;2022-07-29T14:38:18;26.20;84.90
5118;DHT22;2578;51.622;7.046;2022-07-29T14:40:43;26.20;77.00
5118;DHT22;2578;51.622;7.046;2022-07-29T14:43:09;26.50;77.20
5118;DHT22;2578;51.622;7.046;2022-07-29T14:45:35;26.20;75.00
5118;DHT22;2578;51.622;7.046;2022-07-29T14:48:00;26.10;80.00
5118;DHT22;2578;51.622;7.046;2022-07-29T14:50:26;26.00;78.10
5118;DHT22;2578;51.622;7.046;2022-07-29T14:52:52;25.60;82.40
5118;DHT22;2578;51.622;7.046;2022-07-29T14:55:18;25.60;81.10
5118;DHT22;2578;51.622;7.046;2022-07-29T14:57:45;25.50;86.10
5118;DHT22;2578;51.622;7.046;2022-07-29T15:00:12;25.70;86.20
5118;DHT22;2578;51.622;7.046;2022-07-29T15:02:38;25.50;85.70
5118;DHT22;2578;51.622;7.046;2022-07-29T15:05:05;25.20;88.80
5118;DHT22;2578;51.622;7.046;2022-07-29T15:07:31;25.10;87.50
5118;DHT22;2578;51.622;7.046;2022-07-29T15:09:56;24.90;90.10
5118;DHT22;2578;51.622;7.046;2022-07-29T15:12:23;25.00;91.00
5118;DHT22;2578;51.622;7.046;2022-07-29T15:14:49;25.10;90.80
5118;DHT22;2578;51.622;7.046;2022-07-29T15:17:14;25.20;90.50
5118;DHT22;2578;51.622;7.046;2022-07-29T15:19:40;25.40;85.90
5118;DHT22;2578;51.622;7.046;2022-07-29T15:22:06;25.60;90.50
5118;DHT22;2578;51.622;7.046;2022-07-29T15:24:32;26.00;79.40
5118;DHT22;2578;51.622;7.046;2022-07-29T15:26:58;26.00;82.50
5118;DHT22;2578;51.622;7.046;2022-07-29T15:29:24;25.90;81.60
5118;DHT22;2578;51.622;7.046;2022-07-29T15:31:50;25.80;81.10
5118;DHT22;2578;51.622;7.046;2022-07-29T15:34:15;25.70;79.50
5118;DHT22;2578;51.622;7.046;2022-07-29T15:36:41;25.60;79.50
5118;DHT22;2578;51.622;7.046;2022-07-29T15:39:07;25.50;75.40
5118;DHT22;2578;51.622;7.046;2022-07-29T15:41:34;25.60;79.20
5118;DHT22;2578;51.622;7.046;2022-07-29T15:44:00;25.40;78.90
5118;DHT22;2578;51.622;7.046;2022-07-29T15:46:25;25.40;79.70
5118;DHT22;2578;51.622;7.046;2022-07-29T15:49:26;25.40;77.80
5118;DHT22;2578;51.622;7.046;2022-07-29T15:51:57;25.50;73.90
5118;DHT22;2578;51.622;7.046;2022-07-29T15:54:24;25.40;71.90
5118;DHT22;2578;51.622;7.046;2022-07-29T15:56:49;25.50;72.70
5118;DHT22;2578;51.622;7.046;2022-07-29T15:59:15;25.40;66.10
5118;DHT22;2578;51.622;7.046;2022-07-29T16:01:41;25.40;70.40
5118;DHT22;2578;51.622;7.046;2022-07-29T16:04:07;25.50;63.90
5118;DHT22;2578;51.622;7.046;2022-07-29T16:06:32;25.50;63.40
5118;DHT22;2578;51.622;7.046;2022-07-29T16:08:58;25.60;58.70
5118;DHT22;2578;51.622;7.046;2022-07-29T16:11:25;25.70;57.00
5118;DHT22;2578;51.622;7.046;2022-07-29T16:13:50;25.80;57.90
5118;DHT22;2578;51.622;7.046;2022-07-29T16:16:16;25.70;54.50
5118;DHT22;2578;51.622;7.046;2022-07-29T16:18:43;25.80;58.20
5118;DHT22;2578;51.622;7.046;2022-07-29T16:21:10;25.90;61.60
5118;DHT22;2578;51.622;7.046;2022-07-29T16:23:36;26.20;57.30
5118;DHT22;2578;51.622;7.046;2022-07-29T16:26:01;26.30;55.70
5118;DHT22;2578;51.622;7.046;2022-07-29T16:28:28;26.40;52.30
5118;DHT22;2578;51.622;7.046;2022-07-29T16:30:55;26.60;49.80
5118;DHT22;2578;51.622;7.046;2022-07-29T16:33:22;26.90;51.60
5118;DHT22;2578;51.622;7.046;2022-07-29T16:35:48;26.70;47.50
5118;DHT22;2578;51.622;7.046;2022-07-29T16:38:14;26.60;47.90
5118;DHT22;2578;51.622;7.046;2022-07-29T16:40:40;26.50;49.90
5118;DHT22;2578;51.622;7.046;2022-07-29T16:43:06;26.30;55.90
5118;DHT22;2578;51.622;7.046;2022-07-29T16:45:32;26.00;49.60
5118;DHT22;2578;51.622;7.046;2022-07-29T16:47:58;26.00;55.10
5118;DHT22;2578;51.622;7.046;2022-07-29T16:50:24;26.00;56.80
5118;DHT22;2578;51.622;7.046;2022-07-29T16:52:52;26.00;55.20
5118;DHT22;2578;51.622;7.046;2022-07-29T16:55:17;26.00;55.10
5118;DHT22;2578;51.622;7.046;2022-07-29T16:57:43;25.90;56.20